Time;durP1;ratioP1;P1;durP2;ratioP2;P2;SDS_P1;SDS_P2;PMS_P1;PMS_P2;Temp;Humidity;BMP_temperature;BMP_pressure;BME280_temperature;BME280_humidity;BME280_pressure;Samples;Min_cycle;Max_cycle;Signal;HPM_P1;HPM_P2
2023/01/04 00:02:09;;;;;;;7.30;3.00;;;6.50;1.00;;;;;;5017725;28;20519;-59
2023/01/04 00:04:36;;;;;;;8.57;3.20;;;6.50;1.00;;;;;;5018927;28;20456;-60
2023/01/04 00:07:03;;;;;;;4.87;2.90;;;6.50;1.00;;;;;;5018774;28;20799;-60
2023/01/04 00:09:30;;;;;;;6.00;3.10;;;6.50;1.00;;;;;;5018791;28;20477;-58
2023/01/04 00:11:57;;;;;;;4.83;2.60;;;6.50;1.00;;;;;;5018819;28;20491;-60
2023/01/04 00:14:25;;;;;;;7.90;3.50;;;6.50;1.00;;;;;;5019034;28;20764;-59
2023/01/04 00:16:53;;;;;;;7.50;3.37;;;6.60;1.00;;;;;;5018285;28;20468;-60
2023/01/04 00:19:20;;;;;;;5.37;2.67;;;6.60;1.00;;;;;;5018607;28;20752;-59
2023/01/04 00:21:47;;;;;;;6.03;3.00;;;6.60;1.00;;;;;;5018698;28;20869;-59
2023/01/04 00:24:15;;;;;;;5.70;2.50;;;6.50;1.00;;;;;;5018524;28;20475;-57
2023/01/04 00:26:42;;;;;;;6.23;2.60;;;6.60;1.00;;;;;;5018520;28;20444;-59
2023/01/04 00:29:13;;;;;;;7.13;2.80;;;6.60;1.00;;;;;;5017998;28;20916;-56
2023/01/04 00:31:40;;;;;;;8.00;2.60;;;6.70;1.00;;;;;;5018070;28;20488;-59
2023/01/04 00:34:13;;;;;;;4.80;3.10;;;6.70;1.00;;;;;;5018457;28;20438;-59
2023/01/04 00:36:40;;;;;;;5.43;2.37;;;6.70;1.00;;;;;;5017747;28;20928;-59
2023/01/04 00:39:11;;;;;;;5.70;2.70;;;6.80;1.00;;;;;;5018014;28;20470;-60
2023/01/04 00:41:40;;;;;;;5.90;2.70;;;6.90;1.00;;;;;;5018038;28;20468;-60
2023/01/04 00:44:08;;;;;;;4.30;2.60;;;6.90;1.00;;;;;;5018327;28;21015;-60
2023/01/04 00:46:36;;;;;;;3.77;2.40;;;6.90;1.00;;;;;;5017673;28;20463;-60
2023/01/04 00:49:03;;;;;;;3.70;2.10;;;6.90;1.00;;;;;;5017903;28;20554;-61
2023/01/04 00:51:32;;;;;;;4.47;2.70;;;6.90;1.00;;;;;;5017924;28;20757;-59
2023/01/04 00:54:01;;;;;;;5.50;2.43;;;7.00;1.00;;;;;;5017941;28;20925;-58
2023/01/04 00:56:29;;;;;;;4.97;2.40;;;7.00;1.00;;;;;;5018421;28;20467;-58
2023/01/04 00:58:57;;;;;;;6.87;2.50;;;7.00;1.00;;;;;;5017622;28;20472;-60
2023/01/04 01:01:25;;;;;;;5.73;2.47;;;7.10;1.00;;;;;;5017937;28;20562;-60
2023/01/04 01:03:56;;;;;;;5.90;3.03;;;7.10;1.00;;;;;;5018168;28;20468;-61
2023/01/04 01:06:24;;;;;;;8.17;2.70;;;7.10;1.00;;;;;;5018120;28;20469;-61
2023/01/04 01:08:53;;;;;;;5.33;2.60;;;7.10;1.00;;;;;;5017900;28;21142;-61
2023/01/04 01:11:21;;;;;;;5.97;2.63;;;7.10;1.00;;;;;;5017606;28;20537;-62
2023/01/04 01:13:48;;;;;;;6.70;2.30;;;7.10;1.00;;;;;;5017536;28;20496;-60
2023/01/04 01:16:18;;;;;;;5.20;2.80;;;7.00;1.00;;;;;;5017163;28;20467;-60
2023/01/04 01:18:46;;;;;;;5.20;2.60;;;7.00;1.00;;;;;;5017639;28;20442;-60
2023/01/04 01:21:14;;;;;;;7.43;3.00;;;7.00;1.00;;;;;;5017618;28;20594;-60
2023/01/04 01:23:42;;;;;;;6.40;2.87;;;7.00;50.50;;;;;;5017851;28;20460;-59
2023/01/04 01:26:13;;;;;;;7.03;2.60;;;6.90;99.90;;;;;;5017579;28;20536;-59
2023/01/04 01:28:41;;;;;;;5.37;2.33;;;6.90;99.90;;;;;;5017940;28;20464;-59
2023/01/04 01:31:09;;;;;;;3.50;2.30;;;6.80;99.90;;;;;;5017600;28;20773;-60
2023/01/04 01:33:37;;;;;;;5.70;2.57;;;6.80;1.00;;;;;;5017290;28;20495;-59
2023/01/04 01:36:05;;;;;;;7.83;2.37;;;6.80;1.00;;;;;;5017467;28;20449;-60
2023/01/04 01:38:32;;;;;;;4.80;2.83;;;6.70;34.60;;;;;;5017501;28;20472;-60
2023/01/04 01:40:59;;;;;;;4.80;2.37;;;6.70;99.90;;;;;;5016943;28;20467;-62
2023/01/04 01:43:50;;;;;;;5.97;2.40;;;6.70;1.00;;;;;;5017191;28;20460;-61
2023/01/04 01:46:22;;;;;;;3.27;2.60;;;6.70;1.00;;;;;;5017452;28;20460;-62
2023/01/04 01:48:50;;;;;;;5.00;2.70;;;6.70;97.00;;;;;;5020896;28;20464;-63
2023/01/04 01:51:19;;;;;;;5.40;2.43;;;6.70;99.90;;;;;;5021095;28;20435;-63
2023/01/04 01:53:50;;;;;;;4.50;2.63;;;6.70;99.90;;;;;;5021310;28;20840;-61
2023/01/04 01:56:19;;;;;;;8.97;2.47;;;6.70;1.00;;;;;;5021821;28;20460;-60
2023/01/04 01:58:50;;;;;;;5.70;2.60;;;6.70;99.90;;;;;;5021302;28;20539;-61
2023/01/04 02:01:18;;;;;;;5.27;2.50;;;6.70;99.90;;;;;;5021311;28;20885;-61
2023/01/04 02:03:45;;;;;;;6.57;2.97;;;6.70;1.00;;;;;;5021429;28;20466;-64
2023/01/04 02:06:17;;;;;;;5.97;2.80;;;6.70;99.90;;;;;;5021191;28;20492;-63
2023/01/04 02:08:44;;;;;;;9.10;3.23;;;6.70;99.90;;;;;;5021500;28;20467;-61
2023/01/04 02:11:12;;;;;;;4.83;2.90;;;6.70;1.00;;;;;;5021190;28;20502;-62
2023/01/04 02:16:45;;;;;;;7.17;2.87;;;6.70;99.90;;;;;;5021080;28;20954;-62
2023/01/04 02:19:39;;;;;;;7.03;3.47;;;6.70;1.00;;;;;;5020855;28;20468;-62
2023/01/04 02:22:31;;;;;;;4.30;2.40;;;6.70;3.90;;;;;;5007784;28;20450;-62
2023/01/04 02:25:30;;;;;;;6.33;2.93;;;6.70;99.90;;;;;;5039503;28;20468;-63
2023/01/04 02:28:00;;;;;;;5.13;2.80;;;6.70;99.90;;;;;;5060573;28;20469;-61
2023/01/04 02:30:53;;;;;;;5.17;2.80;;;6.70;99.90;;;;;;5059827;28;20808;-60
2023/01/04 02:33:32;;;;;;;5.23;2.60;;;6.70;99.90;;;;;;5060258;28;20969;-62
2023/01/04 02:36:05;;;;;;;5.30;2.83;;;6.70;99.90;;;;;;5060690;28;20743;-62
2023/01/04 02:38:49;;;;;;;10.90;3.50;;;6.70;99.90;;;;;;5060405;28;20472;-63
2023/01/04 02:41:24;;;;;;;5.00;2.50;;;6.70;99.90;;;;;;5060347;28;20933;-63
2023/01/04 02:46:49;;;;;;;9.97;2.90;;;6.70;99.90;;;;;;5060791;28;20433;-63
2023/01/04 02:52:00;;;;;;;4.40;3.10;;;6.70;99.90;;;;;;5060302;28;20438;-61
2023/01/04 02:54:31;;;;;;;5.10;2.80;;;6.70;99.90;;;;;;5061528;28;20734;-62
2023/01/04 02:57:26;;;;;;;5.83;2.80;;;6.70;99.90;;;;;;5060866;28;20525;-62
2023/01/04 03:00:16;;;;;;;6.87;3.23;;;6.80;99.90;;;;;;5059188;28;20458;-61
2023/01/04 03:08:46;;;;;;;4.63;2.80;;;6.90;99.90;;;;;;5060553;28;20476;-63
2023/01/04 03:14:00;;;;;;;6.20;3.23;;;6.90;99.90;;;;;;5058927;28;20478;-62
2023/01/04 03:16:29;;;;;;;5.47;3.37;;;7.00;99.90;;;;;;5059523;28;20473;-62
2023/01/04 03:19:03;;;;;;;7.27;3.70;;;6.90;99.90;;;;;;5059578;28;21253;-63
2023/01/04 03:21:32;;;;;;;4.33;2.93;;;7.00;99.90;;;;;;5060020;28;20497;-63
2023/01/04 03:35:37;;;;;;;8.17;3.60;;;7.10;99.90;;;;;;5058839;28;20434;-63
2023/01/04 03:49:33;;;;;;;10.53;3.33;;;7.20;99.90;;;;;;5058751;28;20918;-62
2023/01/04 03:52:04;;;;;;;8.10;3.70;;;7.30;99.90;;;;;;5059044;28;20462;-62
2023/01/04 03:54:36;;;;;;;5.37;3.53;;;7.30;99.90;;;;;;5058986;28;20770;-62
2023/01/04 03:57:04;;;;;;;5.33;2.93;;;7.20;99.90;;;;;;5058862;28;20462;-63
2023/01/04 03:59:32;;;;;;;5.30;3.90;;;7.30;99.90;;;;;;5059187;28;20485;-62
2023/01/04 04:02:01;;;;;;;8.03;2.80;;;7.30;99.90;;;;;;5058680;28;20463;-59
2023/01/04 04:09:59;;;;;;;3.43;3.10;;;7.30;99.90;;;;;;5038220;28;20450;-62
2023/01/04 04:12:26;;;;;;;9.77;3.63;;;7.30;99.90;;;;;;5038899;28;20467;-62
2023/01/04 04:14:53;;;;;;;5.50;3.07;;;7.30;99.90;;;;;;5039103;28;20469;-61
2023/01/04 04:17:20;;;;;;;5.80;2.87;;;7.40;99.90;;;;;;5038864;28;20467;-62
2023/01/04 04:19:47;;;;;;;4.47;3.03;;;7.40;99.90;;;;;;5038940;28;20463;-62
2023/01/04 04:22:16;;;;;;;4.00;2.57;;;7.40;99.90;;;;;;5039255;28;20463;-63
2023/01/04 04:24:43;;;;;;;5.40;3.10;;;7.50;99.90;;;;;;5039102;28;20437;-63
2023/01/04 04:27:10;;;;;;;4.00;2.67;;;7.40;99.90;;;;;;5038986;28;20489;-64
2023/01/04 04:29:37;;;;;;;3.87;2.43;;;7.50;99.90;;;;;;5037571;28;20467;-63
2023/01/04 04:32:05;;;;;;;2.93;2.20;;;7.50;99.90;;;;;;5037660;28;20463;-63
2023/01/04 04:34:32;;;;;;;3.83;2.63;;;7.50;99.90;;;;;;5038437;28;20502;-64
2023/01/04 04:36:59;;;;;;;4.60;2.50;;;7.60;99.90;;;;;;5037888;28;20462;-63
2023/01/04 04:39:27;;;;;;;3.00;2.00;;;7.60;99.90;;;;;;5038327;28;20467;-63
2023/01/04 04:41:54;;;;;;;3.60;2.37;;;7.60;99.90;;;;;;5038119;28;20902;-63
2023/01/04 04:44:21;;;;;;;4.43;2.30;;;7.60;99.90;;;;;;5038363;28;20459;-63
2023/01/04 04:46:49;;;;;;;6.13;2.50;;;7.70;99.90;;;;;;5038539;28;20466;-63
2023/01/04 04:49:18;;;;;;;6.00;2.20;;;7.70;99.90;;;;;;5037474;28;20506;-63
2023/01/04 04:51:46;;;;;;;3.13;2.00;;;7.70;99.90;;;;;;5037806;28;20558;-62
2023/01/04 04:54:17;;;;;;;4.10;2.33;;;7.70;99.90;;;;;;5037755;28;20766;-64
2023/01/04 04:56:45;;;;;;;3.77;2.50;;;7.70;99.90;;;;;;5038135;28;20471;-63
2023/01/04 04:59:13;;;;;;;3.90;2.07;;;7.70;99.90;;;;;;5037800;28;20772;-62
2023/01/04 05:01:40;;;;;;;4.63;2.13;;;7.70;99.90;;;;;;5037662;28;20473;-61
2023/01/04 05:04:07;;;;;;;2.47;1.80;;;7.70;99.90;;;;;;5037848;28;20481;-62
2023/01/04 05:06:35;;;;;;;2.97;1.80;;;7.60;99.90;;;;;;5054828;28;20954;-62
2023/01/04 05:09:02;;;;;;;3.00;1.90;;;7.70;99.90;;;;;;5057588;28;20436;-62
2023/01/04 05:14:15;;;;;;;4.00;2.53;;;7.70;99.90;;;;;;5057333;28;20788;-62
2023/01/04 05:16:43;;;;;;;2.80;1.70;;;7.70;99.90;;;;;;5057576;28;20468;-62
2023/01/04 05:19:11;;;;;;;2.30;1.80;;;7.70;99.90;;;;;;5056996;28;20466;-59
2023/01/04 05:21:39;;;;;;;2.57;1.80;;;7.80;99.90;;;;;;5056901;28;20477;-62
2023/01/04 05:24:07;;;;;;;2.40;1.83;;;7.80;99.90;;;;;;5057188;28;20562;-62
2023/01/04 05:26:34;;;;;;;1.97;1.47;;;7.80;99.90;;;;;;5057337;28;20466;-62
2023/01/04 05:29:01;;;;;;;2.00;1.70;;;7.80;99.90;;;;;;5056796;28;20908;-63
2023/01/04 05:31:29;;;;;;;2.17;1.40;;;7.80;99.90;;;;;;5056422;28;20472;-62
2023/01/04 05:33:56;;;;;;;2.40;1.40;;;7.90;99.90;;;;;;5057169;28;20486;-62
2023/01/04 05:36:23;;;;;;;2.30;1.70;;;7.90;99.90;;;;;;5057405;28;20537;-62
2023/01/04 05:38:50;;;;;;;2.97;1.90;;;7.90;99.90;;;;;;5057370;28;20561;-62
2023/01/04 05:44:01;;;;;;;2.20;1.50;;;7.90;99.90;;;;;;5056782;28;20540;-61
2023/01/04 05:46:30;;;;;;;2.00;1.63;;;7.90;99.90;;;;;;5057338;28;20945;-61
2023/01/04 05:48:57;;;;;;;2.60;2.07;;;8.00;99.90;;;;;;5056642;28;20465;-61
2023/01/04 05:51:24;;;;;;;2.80;1.70;;;8.00;99.90;;;;;;5057205;28;20472;-62
2023/01/04 05:53:51;;;;;;;2.10;1.50;;;8.00;99.90;;;;;;5056616;28;20504;-60
2023/01/04 05:56:19;;;;;;;2.53;1.70;;;8.00;99.90;;;;;;5056871;28;20472;-62
2023/01/04 05:58:46;;;;;;;10.50;5.33;;;8.10;99.90;;;;;;5056109;28;20472;-60
2023/01/04 06:01:13;;;;;;;2.53;1.93;;;8.10;99.90;;;;;;5056778;28;20497;-62
2023/01/04 06:03:41;;;;;;;4.20;1.90;;;8.10;99.90;;;;;;5057135;28;20473;-61
2023/01/04 06:06:08;;;;;;;3.63;2.40;;;8.10;99.90;;;;;;5056883;28;20457;-60
2023/01/04 06:08:36;;;;;;;2.00;1.40;;;8.10;99.90;;;;;;5056741;28;20462;-61
2023/01/04 06:11:03;;;;;;;2.10;1.50;;;8.20;99.90;;;;;;5056726;28;20509;-60
2023/01/04 06:13:30;;;;;;;2.10;1.50;;;8.20;99.90;;;;;;5056454;28;20501;-57
2023/01/04 06:15:57;;;;;;;3.73;2.60;;;8.30;99.90;;;;;;5057235;28;20462;-60
2023/01/04 06:18:24;;;;;;;2.60;1.73;;;8.30;99.90;;;;;;5056839;28;20462;-59
2023/01/04 06:20:53;;;;;;;2.20;1.80;;;8.30;99.90;;;;;;5056903;28;20746;-62
2023/01/04 06:23:20;;;;;;;8.87;4.60;;;8.30;99.90;;;;;;5017907;28;20467;-59
2023/01/04 06:25:47;;;;;;;9.40;4.50;;;8.30;99.90;;;;;;5016901;28;20893;-60
2023/01/04 06:28:14;;;;;;;2.70;1.70;;;8.40;99.90;;;;;;5016999;28;20479;-61
2023/01/04 06:30:41;;;;;;;2.00;1.47;;;8.40;99.90;;;;;;5015941;28;20959;-60
2023/01/04 06:33:08;;;;;;;4.60;3.43;;;8.40;99.90;;;;;;5035635;28;20467;-57
2023/01/04 06:35:36;;;;;;;4.20;2.87;;;8.40;99.90;;;;;;5040273;28;20465;-60
2023/01/04 06:38:04;;;;;;;3.33;1.40;;;8.40;99.90;;;;;;5040223;28;20552;-60
2023/01/04 06:40:31;;;;;;;2.97;2.00;;;8.40;99.90;;;;;;5040582;28;20474;-63
2023/01/04 06:42:58;;;;;;;1.90;1.30;;;8.50;99.90;;;;;;5040104;28;20469;-62
2023/01/04 06:45:26;;;;;;;2.33;1.50;;;8.40;99.90;;;;;;5039904;28;20485;-63
2023/01/04 06:47:53;;;;;;;2.40;1.50;;;8.40;99.90;;;;;;5040108;28;20469;-63
2023/01/04 06:50:20;;;;;;;2.17;1.60;;;8.40;99.90;;;;;;5040447;28;20928;-64
2023/01/04 06:52:47;;;;;;;1.80;1.00;;;8.40;99.90;;;;;;5040183;28;20477;-63
2023/01/04 06:55:15;;;;;;;2.00;1.40;;;8.40;99.90;;;;;;5039607;28;20491;-65
2023/01/04 06:57:43;;;;;;;2.00;1.00;;;8.40;99.90;;;;;;5039911;28;20462;-65
2023/01/04 07:00:11;;;;;;;2.10;1.20;;;8.40;99.90;;;;;;5039903;28;20463;-65
2023/01/04 07:02:38;;;;;;;1.80;1.30;;;8.50;99.90;;;;;;5040214;28;20498;-63
2023/01/04 07:05:06;;;;;;;2.03;1.40;;;8.50;99.90;;;;;;5039186;28;20560;-64
2023/01/04 07:07:34;;;;;;;2.00;1.20;;;8.50;99.90;;;;;;5038475;28;20469;-63
2023/01/04 07:10:01;;;;;;;2.20;1.50;;;8.50;99.90;;;;;;5040151;28;20829;-63
2023/01/04 07:12:30;;;;;;;2.60;1.60;;;8.50;99.90;;;;;;5039864;28;20467;-62
2023/01/04 07:14:57;;;;;;;2.97;1.57;;;8.60;99.90;;;;;;5039139;28;20494;-62
2023/01/04 07:17:25;;;;;;;2.10;1.37;;;8.70;99.90;;;;;;5039358;28;20448;-64
2023/01/04 07:19:52;;;;;;;2.40;1.60;;;8.70;99.90;;;;;;5039587;28;20470;-65
2023/01/04 07:22:19;;;;;;;2.80;1.40;;;8.70;99.90;;;;;;5039888;28;20860;-62
2023/01/04 07:24:46;;;;;;;2.43;1.80;;;8.70;99.90;;;;;;5040006;28;20470;-64
2023/01/04 07:27:13;;;;;;;2.00;1.40;;;8.70;99.90;;;;;;5039143;28;20473;-64
2023/01/04 07:29:43;;;;;;;4.00;1.27;;;8.70;99.90;;;;;;5034485;28;20470;-63
2023/01/04 07:32:10;;;;;;;2.40;1.37;;;8.80;99.90;;;;;;5038293;28;20463;-63
2023/01/04 07:34:39;;;;;;;2.00;1.07;;;8.70;99.90;;;;;;5039348;28;20497;-65
2023/01/04 07:37:09;;;;;;;2.20;1.23;;;8.70;99.90;;;;;;5054732;28;20458;-63
2023/01/04 07:39:36;;;;;;;7.40;5.03;;;8.70;99.90;;;;;;5058790;28;20466;-65
2023/01/04 07:42:03;;;;;;;3.40;2.20;;;8.70;99.90;;;;;;5059107;28;20466;-64
2023/01/04 07:44:30;;;;;;;4.17;2.70;;;8.70;99.90;;;;;;5058966;28;20496;-64
2023/01/04 07:46:59;;;;;;;3.70;2.47;;;8.70;99.90;;;;;;5058860;28;20895;-64
2023/01/04 07:49:26;;;;;;;2.23;1.60;;;8.70;99.90;;;;;;5049230;28;20456;-63
2023/01/04 07:51:53;;;;;;;4.17;2.70;;;8.80;99.90;;;;;;5017723;28;20570;-63
2023/01/04 07:54:20;;;;;;;2.60;1.57;;;8.80;99.90;;;;;;5018193;28;20492;-64
2023/01/04 07:56:48;;;;;;;3.00;2.10;;;8.80;99.90;;;;;;5017910;28;20862;-63
2023/01/04 07:59:17;;;;;;;2.33;1.60;;;8.80;99.90;;;;;;5017345;28;20442;-62
2023/01/04 08:01:44;;;;;;;4.87;3.40;;;8.80;99.90;;;;;;5017571;28;20471;-64
2023/01/04 08:04:14;;;;;;;3.03;2.20;;;8.80;99.90;;;;;;5017989;28;20466;-63
2023/01/04 08:06:45;;;;;;;3.17;1.70;;;8.80;99.90;;;;;;5018887;28;20936;-64
2023/01/04 08:09:13;;;;;;;3.30;2.23;;;8.90;99.90;;;;;;5018566;28;20482;-64
2023/01/04 08:11:40;;;;;;;2.20;1.53;;;8.90;99.90;;;;;;5018733;28;20465;-63
2023/01/04 08:14:08;;;;;;;1.87;1.27;;;8.90;99.90;;;;;;5018806;28;20784;-65
2023/01/04 08:16:37;;;;;;;2.43;1.70;;;8.90;99.90;;;;;;5019087;28;20464;-64
2023/01/04 08:19:06;;;;;;;3.73;2.73;;;8.90;99.90;;;;;;5039086;28;20458;-64
2023/01/04 08:21:36;;;;;;;5.27;3.40;;;8.90;99.90;;;;;;5058400;28;20472;-65
2023/01/04 08:24:04;;;;;;;7.53;4.07;;;8.90;99.90;;;;;;5058326;28;20740;-64
2023/01/04 08:26:31;;;;;;;3.33;1.83;;;8.90;99.90;;;;;;5058608;28;20468;-63
2023/01/04 08:28:59;;;;;;;3.73;1.70;;;8.90;99.90;;;;;;5057503;28;20462;-64
2023/01/04 08:31:28;;;;;;;2.90;2.17;;;8.90;99.90;;;;;;5057676;28;20748;-64
2023/01/04 08:33:57;;;;;;;2.67;2.00;;;9.00;99.90;;;;;;5057589;28;20471;-63
2023/01/04 08:36:26;;;;;;;2.00;1.60;;;9.00;99.90;;;;;;5058431;28;20489;-63
2023/01/04 08:38:56;;;;;;;3.60;2.23;;;9.00;99.90;;;;;;5058483;28;20557;-63
2023/01/04 08:41:24;;;;;;;2.50;1.80;;;9.10;99.90;;;;;;5058223;28;20484;-64
2023/01/04 08:43:51;;;;;;;2.47;1.30;;;9.10;99.90;;;;;;5057607;28;20475;-63
2023/01/04 08:46:18;;;;;;;2.23;1.67;;;9.10;99.90;;;;;;5058158;28;20466;-65
2023/01/04 08:48:45;;;;;;;3.70;1.33;;;9.10;99.90;;;;;;5057505;28;20775;-62
2023/01/04 08:51:14;;;;;;;3.37;2.27;;;9.20;99.90;;;;;;5057670;28;20890;-63
2023/01/04 08:53:41;;;;;;;2.13;1.63;;;9.20;99.90;;;;;;5057687;28;20494;-63
2023/01/04 08:56:11;;;;;;;2.60;1.90;;;9.30;99.90;;;;;;5056759;28;20469;-63
2023/01/04 08:58:41;;;;;;;2.33;1.50;;;9.30;99.90;;;;;;5056246;28;20546;-63
2023/01/04 09:01:10;;;;;;;4.80;1.83;;;9.30;99.90;;;;;;5055920;28;20462;-64
2023/01/04 09:03:38;;;;;;;3.60;2.80;;;9.30;99.90;;;;;;5055622;28;20462;-63
2023/01/04 09:06:07;;;;;;;3.33;1.60;;;9.20;99.90;;;;;;5055806;28;20486;-64
2023/01/04 09:08:36;;;;;;;4.00;1.60;;;9.20;99.90;;;;;;5055817;28;20884;-64
2023/01/04 09:11:05;;;;;;;2.17;1.67;;;9.30;99.90;;;;;;5054775;28;20472;-64
2023/01/04 09:13:34;;;;;;;2.10;1.70;;;9.30;99.90;;;;;;5055146;28;20516;-63
2023/01/04 09:16:02;;;;;;;2.67;1.70;;;9.30;99.90;;;;;;5054930;28;20583;-63
2023/01/04 09:18:30;;;;;;;2.40;1.67;;;9.30;99.90;;;;;;5055027;28;20457;-63
2023/01/04 09:20:57;;;;;;;2.27;1.50;;;9.30;99.90;;;;;;5054883;28;20540;-64
2023/01/04 09:23:24;;;;;;;2.97;1.80;;;9.30;99.90;;;;;;5055710;28;20756;-63
2023/01/04 09:25:52;;;;;;;2.63;1.83;;;9.30;99.90;;;;;;5055460;28;20925;-63
2023/01/04 09:28:19;;;;;;;1.97;1.30;;;9.40;99.90;;;;;;5056347;28;20477;-64
2023/01/04 09:30:47;;;;;;;5.30;1.80;;;9.40;99.90;;;;;;5056757;28;20906;-62
2023/01/04 09:33:14;;;;;;;3.80;1.63;;;9.50;99.90;;;;;;5054963;28;20466;-65
2023/01/04 09:35:42;;;;;;;2.50;1.57;;;9.50;99.90;;;;;;5055350;28;20934;-63
2023/01/04 09:38:09;;;;;;;1.90;1.60;;;9.60;99.90;;;;;;5055393;28;20977;-62
2023/01/04 09:40:50;;;;;;;2.67;1.70;;;9.60;99.90;;;;;;5055837;28;20511;-63
2023/01/04 09:43:20;;;;;;;2.30;1.60;;;9.60;99.90;;;;;;5048477;28;20483;-63
2023/01/04 09:45:52;;;;;;;2.30;1.40;;;9.60;99.90;;;;;;5015358;28;20555;-63
2023/01/04 09:48:23;;;;;;;3.03;1.90;;;9.70;99.90;;;;;;5017576;28;20474;-63
2023/01/04 09:50:54;;;;;;;2.40;1.90;;;9.70;99.90;;;;;;5017242;28;20464;-63
2023/01/04 09:53:26;;;;;;;2.20;1.57;;;9.70;99.90;;;;;;5017168;28;20490;-64
2023/01/04 09:55:56;;;;;;;4.00;1.60;;;9.70;99.90;;;;;;5017262;28;20763;-62
2023/01/04 09:58:28;;;;;;;2.27;1.50;;;9.80;99.90;;;;;;5017413;28;20870;-63
2023/01/04 10:01:01;;;;;;;2.97;2.27;;;9.80;99.90;;;;;;5017332;28;20559;-63
2023/01/04 10:03:32;;;;;;;2.47;1.87;;;9.80;99.90;;;;;;5017156;28;20561;-62
2023/01/04 10:06:00;;;;;;;2.60;1.70;;;9.90;99.90;;;;;;5017350;28;20514;-64
2023/01/04 10:08:30;;;;;;;2.20;1.70;;;9.90;99.90;;;;;;5018912;28;20471;-63
2023/01/04 10:11:07;;;;;;;2.93;1.37;;;10.00;99.90;;;;;;5020623;28;20470;-64
2023/01/04 10:13:52;;;;;;;2.73;1.57;;;10.10;99.90;;;;;;5021288;28;20964;-64
2023/01/04 10:16:36;;;;;;;2.80;1.73;;;10.10;99.90;;;;;;5021052;28;20495;-62
2023/01/04 10:19:15;;;;;;;2.10;1.53;;;10.10;99.90;;;;;;5020248;28;20518;-65
2023/01/04 10:21:48;;;;;;;2.60;1.30;;;10.20;99.90;;;;;;5020121;28;20463;-64
2023/01/04 10:24:34;;;;;;;2.60;1.63;;;10.20;99.90;;;;;;5020641;28;20503;-63
2023/01/04 10:27:07;;;;;;;2.20;1.60;;;10.30;99.90;;;;;;5019568;28;20476;-66
2023/01/04 10:29:50;;;;;;;2.43;1.63;;;10.30;99.90;;;;;;5020606;28;20503;-67
2023/01/04 10:32:29;;;;;;;3.03;2.50;;;10.20;99.90;;;;;;5020805;28;20503;-66
2023/01/04 10:34:56;;;;;;;3.07;2.30;;;10.20;99.90;;;;;;5020264;28;20586;-65
2023/01/04 10:37:26;;;;;;;2.57;1.50;;;10.30;99.90;;;;;;5020330;28;20464;-64
2023/01/04 10:39:55;;;;;;;2.70;2.23;;;10.30;99.90;;;;;;5020027;28;20558;-65
2023/01/04 10:42:32;;;;;;;2.10;1.80;;;10.30;99.90;;;;;;5019185;28;20470;-65
2023/01/04 10:45:12;;;;;;;3.50;1.80;;;10.40;99.90;;;;;;5019353;28;20460;-66
2023/01/04 10:47:49;;;;;;;4.90;2.30;;;10.40;99.90;;;;;;5020014;28;20463;-67
2023/01/04 10:50:22;;;;;;;2.10;1.40;;;10.40;99.90;;;;;;5020175;28;20442;-64
2023/01/04 10:52:53;;;;;;;2.80;1.90;;;10.50;99.90;;;;;;5019835;28;20470;-66
2023/01/04 10:55:28;;;;;;;2.37;1.97;;;10.50;99.90;;;;;;5019799;28;20477;-64
2023/01/04 10:57:59;;;;;;;6.67;2.40;;;10.50;99.90;;;;;;5019735;28;20470;-64
2023/01/04 11:00:30;;;;;;;3.27;2.03;;;10.50;99.90;;;;;;5018973;28;20464;-65
2023/01/04 11:03:06;;;;;;;3.17;2.07;;;10.50;99.90;;;;;;5018268;28;20537;-66
2023/01/04 11:05:39;;;;;;;2.40;1.80;;;10.50;99.90;;;;;;5018350;28;20487;-64
2023/01/04 11:08:11;;;;;;;4.27;1.97;;;10.50;99.90;;;;;;5018487;28;20464;-67
2023/01/04 11:10:43;;;;;;;2.80;2.17;;;10.50;99.90;;;;;;5018444;28;20541;-66
2023/01/04 11:13:10;;;;;;;3.23;2.40;;;10.60;99.90;;;;;;5018456;28;20481;-65
2023/01/04 11:15:38;;;;;;;6.60;3.00;;;10.60;99.90;;;;;;5019967;28;20492;-64
2023/01/04 11:18:10;;;;;;;3.67;2.43;;;10.60;99.90;;;;;;5019891;28;20467;-67
2023/01/04 11:20:37;;;;;;;4.20;3.73;;;10.60;99.90;;;;;;5019081;28;20467;-66
2023/01/04 11:23:09;;;;;;;3.67;2.33;;;10.60;99.90;;;;;;5019697;28;20472;-65
2023/01/04 11:25:44;;;;;;;3.77;2.60;;;10.50;99.90;;;;;;5019872;28;20482;-65
2023/01/04 11:28:18;;;;;;;2.93;2.33;;;10.60;99.90;;;;;;5019946;28;20893;-65
2023/01/04 11:30:58;;;;;;;3.33;2.53;;;10.60;99.90;;;;;;5018958;28;20471;-64
2023/01/04 11:33:27;;;;;;;2.80;2.50;;;10.60;99.90;;;;;;5019730;28;20758;-65
2023/01/04 11:35:57;;;;;;;3.00;2.43;;;10.60;99.90;;;;;;5019324;28;20602;-64
2023/01/04 11:38:27;;;;;;;4.00;2.80;;;10.60;99.90;;;;;;5019570;28;20503;-65
2023/01/04 11:40:57;;;;;;;4.37;2.30;;;10.60;99.90;;;;;;5019769;28;20460;-64
2023/01/04 11:43:26;;;;;;;3.73;2.60;;;10.60;99.90;;;;;;5019239;28;20468;-63
2023/01/04 11:45:57;;;;;;;4.37;3.20;;;10.60;99.90;;;;;;5019030;28;20471;-63
2023/01/04 11:48:38;;;;;;;3.13;2.37;;;10.60;99.90;;;;;;5032906;28;20566;-63
2023/01/04 11:51:16;;;;;;;3.23;2.03;;;10.60;99.90;;;;;;5039245;28;20467;-63
2023/01/04 11:53:43;;;;;;;7.37;2.30;;;10.70;99.90;;;;;;5039052;28;20806;-64
2023/01/04 11:56:22;;;;;;;4.40;2.37;;;10.70;99.90;;;;;;5038939;28;20491;-62
2023/01/04 11:59:13;;;;;;;2.23;1.80;;;10.70;99.90;;;;;;5038943;28;20458;-62
2023/01/04 12:01:42;;;;;;;3.30;2.10;;;10.70;99.90;;;;;;5039137;28;20459;-61
2023/01/04 12:04:16;;;;;;;2.70;2.20;;;10.70;99.90;;;;;;5039229;28;20557;-63
2023/01/04 12:06:49;;;;;;;5.90;2.77;;;10.70;99.90;;;;;;5038925;28;20764;-63
2023/01/04 12:09:18;;;;;;;3.10;1.97;;;10.70;99.90;;;;;;5038639;28;20471;-62
2023/01/04 12:11:49;;;;;;;3.07;2.27;;;10.70;99.90;;;;;;5038752;28;20546;-63
2023/01/04 12:14:23;;;;;;;2.70;2.30;;;10.70;99.90;;;;;;5038498;28;20934;-63
2023/01/04 12:17:00;;;;;;;3.80;2.40;;;10.80;99.90;;;;;;5038081;28;20982;-63
2023/01/04 12:19:29;;;;;;;3.40;2.67;;;10.80;99.90;;;;;;5038396;28;20458;-63
2023/01/04 12:21:58;;;;;;;3.63;2.47;;;10.90;99.90;;;;;;5038004;28;20473;-64
2023/01/04 12:24:28;;;;;;;3.57;2.60;;;11.00;99.90;;;;;;5037940;28;20463;-64
2023/01/04 12:26:56;;;;;;;2.90;2.63;;;11.00;99.90;;;;;;5037999;28;20462;-65
2023/01/04 12:29:58;;;;;;;2.47;2.13;;;11.10;99.90;;;;;;5037093;28;20463;-65
2023/01/04 12:32:55;;;;;;;3.20;2.70;;;11.10;99.90;;;;;;5038606;28;20473;-64
2023/01/04 12:36:05;;;;;;;2.80;2.50;;;11.10;99.90;;;;;;5038011;28;20497;-65
2023/01/04 12:39:03;;;;;;;3.07;2.20;;;11.10;99.90;;;;;;5038302;28;20448;-66
2023/01/04 12:42:18;;;;;;;3.20;2.80;;;11.10;99.90;;;;;;5037975;28;20506;-64
2023/01/04 12:45:09;;;;;;;3.20;2.90;;;11.20;99.90;;;;;;5035331;28;20482;-65
2023/01/04 12:51:19;;;;;;;4.20;2.03;;;11.20;99.90;;;;;;5036652;28;20780;-66
2023/01/04 12:53:58;;;;;;;3.17;2.87;;;11.10;99.90;;;;;;5036642;28;20454;-65
2023/01/04 12:56:58;;;;;;;2.53;1.90;;;11.10;99.90;;;;;;5037670;28;20612;-65
2023/01/04 12:59:35;;;;;;;3.00;2.20;;;11.10;99.90;;;;;;5037145;28;20521;-65
2023/01/04 13:02:20;;;;;;;3.23;2.27;;;11.10;99.90;;;;;;5037639;28;20473;-65
2023/01/04 13:04:49;;;;;;;3.00;2.70;;;11.10;99.90;;;;;;5034782;28;20478;-65
2023/01/04 13:07:26;;;;;;;3.47;3.17;;;11.10;99.90;;;;;;5037017;28;20760;-65
2023/01/04 13:09:59;;;;;;;3.77;3.37;;;11.00;99.90;;;;;;5036915;28;20528;-65
2023/01/04 13:12:59;;;;;;;3.23;3.00;;;11.00;99.90;;;;;;5036963;28;20895;-68
2023/01/04 13:15:43;;;;;;;4.10;3.50;;;11.00;99.90;;;;;;5036666;28;20497;-67
2023/01/04 13:18:32;;;;;;;3.83;2.70;;;11.00;99.90;;;;;;5037318;28;20573;-67
2023/01/04 13:21:01;;;;;;;4.60;3.90;;;11.10;99.90;;;;;;5036896;28;20949;-67
2023/01/04 13:23:29;;;;;;;3.80;3.00;;;11.10;99.90;;;;;;5037259;28;20540;-66
2023/01/04 13:25:56;;;;;;;6.70;3.17;;;11.10;99.90;;;;;;5037509;28;20463;-65
2023/01/04 13:28:23;;;;;;;3.53;2.90;;;11.10;99.90;;;;;;5037150;28;20464;-65
2023/01/04 13:31:00;;;;;;;2.40;1.90;;;11.20;99.90;;;;;;5036488;28;20529;-66
2023/01/04 13:33:27;;;;;;;2.83;2.37;;;11.20;99.90;;;;;;5037236;28;20459;-65
2023/01/04 13:36:03;;;;;;;2.90;2.30;;;11.20;99.90;;;;;;5037233;28;20495;-65
2023/01/04 13:38:33;;;;;;;2.37;2.17;;;11.20;99.90;;;;;;5037586;28;20485;-65
2023/01/04 13:41:00;;;;;;;2.67;2.47;;;11.20;99.90;;;;;;5036868;28;20469;-63
2023/01/04 13:43:50;;;;;;;4.30;3.90;;;11.20;99.90;;;;;;5036460;28;20946;-65
2023/01/04 13:46:20;;;;;;;2.30;1.90;;;11.20;99.90;;;;;;5037138;28;20566;-65
2023/01/04 13:48:51;;;;;;;3.17;2.70;;;11.20;99.90;;;;;;5037393;28;20474;-66
2023/01/04 13:51:24;;;;;;;3.07;2.00;;;11.20;99.90;;;;;;5036900;28;20517;-66
2023/01/04 13:53:55;;;;;;;2.20;2.00;;;11.20;99.90;;;;;;5037181;28;20463;-65
2023/01/04 13:56:24;;;;;;;2.23;2.03;;;11.20;99.90;;;;;;5036514;28;20863;-67
2023/01/04 13:58:51;;;;;;;2.43;2.20;;;11.20;99.90;;;;;;5036986;28;20459;-66
2023/01/04 14:01:24;;;;;;;3.00;2.23;;;11.10;99.90;;;;;;5037076;28;20489;-67
2023/01/04 14:03:55;;;;;;;2.23;2.03;;;11.10;99.90;;;;;;5036874;28;20467;-66
2023/01/04 14:06:27;;;;;;;4.00;3.60;;;11.10;99.90;;;;;;5033013;28;20483;-64
2023/01/04 14:09:04;;;;;;;3.03;2.40;;;11.10;99.90;;;;;;5017489;28;20471;-66
2023/01/04 14:14:37;;;;;;;2.90;1.90;;;11.10;99.90;;;;;;5021241;28;20431;-67